メインページ
METAR-TAF:

METAR-TAF

空港 :

西安, 中華人民共和国

西安咸陽国際空港

緯度: 34-26N, 経度: 108-45E, 海抜: 479m

現時点の気象観測

当レポートは33分前の19:00(UTC)に作成
南西の風 4kt、から西/南西の間で変化する
気温 2°C
湿度 64%
気圧 1018 hPa
視程: 5000m
煙霧

METAR: ZLXY 251900Z 23002MPS 190V250 5000 HZ NSC 02/M04 Q1018 NOSIG

時間: 03:33 (19:33 UTC)

予報

当レポートは4時間27分前の15:06(UTC)に作成
予報は25日の 18時(UTC)から 26日の 18時(UTC)まで有効
東/北東の風 6kt
視程: 3000m
煙霧

TAF: ZLXY 251506Z 2518/2618 06003MPS 3000 HZ NSC TX16/2607Z TN00/2523Z

4,000以上の空港の気象観測と天気予報(METAR報とTAF報)

利用可能な観測所は地図上に黄色い丸と赤い丸で示す。

丸の上にカーソルを重ねると観測所名を参照できる。

次にクリックすると気象観測と天気予報を参照できる。

マップの切り替え:黒色「×」印の緑ボタンをクリックして拡大、「-」印の緑ボタンをクリックして縮小、緑色の三角印をクリックして隣りの地図に切り替え


METAR-TAF: